Time;durP1;ratioP1;P1;durP2;ratioP2;P2;SDS_P1;SDS_P2;PMS_P1;PMS_P2;Temp;Humidity;BMP_temperature;BMP_pressure;BME280_temperature;BME280_humidity;BME280_pressure;Samples;Min_cycle;Max_cycle;Signal;HPM_P1;HPM_P2
2022/08/21 00:00:25;;;;;;;11.35;6.55;;;;;;;18.07;79.90;94293.66;5112272;28;20051;-83
2022/08/21 00:02:55;;;;;;;15.73;6.70;;;;;;;18.04;80.20;94276.44;5078577;28;20100;-83
2022/08/21 00:05:22;;;;;;;7.97;6.32;;;;;;;18.20;79.85;94288.56;5095640;28;20036;-83
2022/08/21 00:07:47;;;;;;;9.90;6.72;;;;;;;18.20;79.40;94282.50;5113550;28;20408;-83
2022/08/21 00:10:13;;;;;;;10.05;5.78;;;;;;;18.21;79.24;94271.78;5112309;28;20024;-83
2022/08/21 00:12:38;;;;;;;8.98;5.28;;;;;;;18.29;78.48;94274.28;5095224;28;20043;-82
2022/08/21 00:15:05;;;;;;;8.60;4.60;;;;;;;18.23;78.46;94261.91;5094400;28;20031;-83
2022/08/21 00:17:31;;;;;;;8.60;5.25;;;;;;;18.17;78.68;94261.84;5095181;28;20043;-83
2022/08/21 00:19:56;;;;;;;7.07;4.63;;;;;;;18.28;78.49;94272.66;5111945;28;20413;-83
2022/08/21 00:22:24;;;;;;;7.80;4.32;;;;;;;18.36;78.24;94276.16;5078148;28;20417;-83
2022/08/21 00:24:50;;;;;;;8.93;4.88;;;;;;;18.19;78.06;94263.28;5111597;28;20032;-83
2022/08/21 00:27:15;;;;;;;9.23;4.50;;;;;;;18.31;78.27;94279.38;5078062;28;20028;-83
2022/08/21 00:29:40;;;;;;;8.65;4.70;;;;;;;18.31;78.19;94277.53;5112983;28;20031;-83
2022/08/21 00:32:07;;;;;;;7.60;4.57;;;;;;;18.39;78.15;94281.06;5111860;28;20058;-83
2022/08/21 00:34:32;;;;;;;6.85;4.22;;;;;;;18.45;78.57;94278.50;5111741;28;20028;-82
2022/08/21 00:36:57;;;;;;;7.13;4.40;;;;;;;18.48;78.25;94266.78;5112559;28;20031;-82
2022/08/21 00:39:23;;;;;;;6.15;4.80;;;;;;;18.56;77.75;94276.38;5111881;28;20020;-83
2022/08/21 00:41:49;;;;;;;7.97;4.72;;;;;;;18.51;78.19;94271.66;5112215;28;20035;-83
2022/08/21 00:44:14;;;;;;;7.95;4.53;;;;;;;18.54;78.39;94279.97;5077653;28;20032;-83
2022/08/21 00:46:40;;;;;;;10.82;5.40;;;;;;;18.57;78.50;94277.97;5111799;28;20031;-83
2022/08/21 00:49:06;;;;;;;10.68;5.30;;;;;;;18.48;78.60;94253.63;5077689;28;20080;-83
2022/08/21 00:51:40;;;;;;;7.60;4.75;;;;;;;18.62;78.37;94280.88;5111808;28;20309;-83
2022/08/21 00:54:06;;;;;;;9.38;5.43;;;;;;;18.63;78.38;94280.66;5094529;28;20024;-82
2022/08/21 00:56:34;;;;;;;7.85;4.20;;;;;;;18.66;77.82;94272.38;5094743;28;20088;-83
2022/08/21 00:59:00;;;;;;;9.57;4.80;;;;;;;18.70;77.94;94276.28;5077268;28;20555;-82
2022/08/21 01:01:25;;;;;;;7.13;4.75;;;;;;;18.77;77.27;94275.53;5097665;27;20024;-83
2022/08/21 01:03:51;;;;;;;11.15;4.40;;;;;;;18.70;77.00;94264.94;5097386;27;20385;-83
2022/08/21 01:06:16;;;;;;;7.72;4.65;;;;;;;18.59;76.87;94253.13;5133008;27;20030;-83
2022/08/21 01:08:42;;;;;;;8.73;4.75;;;;;;;18.58;77.34;94250.66;5114387;27;20466;-83
2022/08/21 01:11:07;;;;;;;9.65;4.40;;;;;;;18.64;77.58;94263.09;5114590;27;20454;-82
2022/08/21 01:13:38;;;;;;;6.47;4.25;;;;;;;18.61;77.68;94248.50;5080391;27;20035;-83
2022/08/21 01:16:04;;;;;;;10.18;5.03;;;;;;;18.68;77.58;94256.44;5098419;27;20019;-83
2022/08/21 01:18:30;;;;;;;10.25;4.38;;;;;;;18.68;77.68;94249.34;5097764;27;20035;-82
2022/08/21 01:21:14;;;;;;;9.48;4.95;;;;;;;18.74;77.87;94243.34;5097464;27;20033;-81
2022/08/21 01:23:44;;;;;;;10.75;5.00;;;;;;;18.77;77.41;94247.41;5097631;27;20035;-83
2022/08/21 01:26:11;;;;;;;6.00;4.90;;;;;;;18.80;77.01;94254.13;5097699;27;20423;-83
2022/08/21 01:28:38;;;;;;;8.63;4.78;;;;;;;18.74;76.98;94242.53;5114184;28;20049;-83
2022/08/21 01:31:05;;;;;;;11.20;5.30;;;;;;;18.78;77.61;94253.47;5097507;27;20035;-83
2022/08/21 01:33:30;;;;;;;8.55;5.32;;;;;;;18.69;77.51;94240.47;5097344;27;20087;-83
2022/08/21 01:35:56;;;;;;;11.90;5.60;;;;;;;18.81;77.29;94250.50;5113899;28;20453;-83
2022/08/21 01:38:21;;;;;;;9.52;5.55;;;;;;;18.83;77.32;94256.34;5097258;28;20471;-83
2022/08/21 01:40:47;;;;;;;8.48;5.93;;;;;;;18.90;76.98;94251.97;5097326;28;20106;-83
2022/08/21 01:43:12;;;;;;;8.45;5.70;;;;;;;18.90;76.48;94257.22;5114259;28;20042;-83
2022/08/21 01:45:38;;;;;;;8.75;4.93;;;;;;;18.92;76.29;94249.97;5132092;28;20031;-83
2022/08/21 01:48:03;;;;;;;8.98;5.35;;;;;;;18.86;76.26;94246.28;5096970;28;20027;-83
2022/08/21 01:50:29;;;;;;;8.18;4.72;;;;;;;18.80;76.32;94254.13;5101046;27;20408;-83
2022/08/21 01:52:54;;;;;;;7.28;4.40;;;;;;;18.86;76.01;94262.06;5136945;27;20473;-83
2022/08/21 01:55:21;;;;;;;9.95;4.90;;;;;;;18.95;75.76;94268.81;5100977;27;20078;-83
2022/08/21 01:57:47;;;;;;;7.15;4.53;;;;;;;18.95;76.07;94266.19;5101311;27;20058;-83
2022/08/21 02:00:13;;;;;;;7.30;4.45;;;;;;;19.01;75.20;94269.06;5114748;28;20109;-83
2022/08/21 02:02:40;;;;;;;9.93;4.30;;;;;;;18.89;75.02;94255.63;5097918;28;20493;-83
2022/08/21 02:05:06;;;;;;;10.95;4.85;;;;;;;18.98;75.14;94263.16;5097556;28;20020;-81
2022/08/21 02:07:39;;;;;;;9.63;5.07;;;;;;;18.87;74.78;94244.47;5081004;28;20035;-83
2022/08/21 02:10:06;;;;;;;7.75;4.45;;;;;;;18.87;74.64;94255.00;5097408;28;20071;-83
2022/08/21 02:12:31;;;;;;;10.73;4.70;;;;;;;18.86;75.02;94264.72;5114761;28;20089;-83
2022/08/21 02:14:56;;;;;;;7.95;4.47;;;;;;;18.83;75.12;94272.16;5097061;28;20031;-83
2022/08/21 02:17:22;;;;;;;11.68;4.40;;;;;;;18.84;74.95;94263.25;5080578;28;20113;-83
2022/08/21 02:19:47;;;;;;;10.70;4.47;;;;;;;18.83;75.08;94261.63;5097327;28;20028;-82
2022/08/21 02:22:13;;;;;;;9.38;4.45;;;;;;;18.81;74.86;94277.63;5080423;28;20120;-83
2022/08/21 02:24:39;;;;;;;8.75;3.95;;;;;;;18.73;74.63;94257.47;5096916;28;20025;-83
2022/08/21 02:27:04;;;;;;;7.85;4.18;;;;;;;18.79;74.69;94263.81;5097524;28;20404;-83
2022/08/21 02:29:32;;;;;;;7.38;4.00;;;;;;;18.75;74.50;94263.41;5097155;28;20039;-82
2022/08/21 02:31:58;;;;;;;14.27;3.92;;;;;;;18.78;74.78;94274.53;5097045;28;20031;-82
2022/08/21 02:34:24;;;;;;;6.30;3.30;;;;;;;18.72;74.56;94269.03;5115057;28;20508;-83
2022/08/21 02:36:51;;;;;;;6.30;3.88;;;;;;;18.71;74.98;94275.25;5097340;28;20074;-83
2022/08/21 02:39:17;;;;;;;9.00;3.50;;;;;;;18.70;75.02;94273.66;5097600;28;20047;-83
2022/08/21 02:41:43;;;;;;;8.57;3.05;;;;;;;18.68;74.91;94261.69;5113941;28;20482;-82
2022/08/21 02:44:08;;;;;;;10.25;3.00;;;;;;;18.69;74.66;94266.78;5096772;28;20027;-83
2022/08/21 02:46:34;;;;;;;5.82;2.85;;;;;;;18.71;74.49;94270.00;5113918;28;20023;-83
2022/08/21 02:48:59;;;;;;;5.00;3.00;;;;;;;18.75;74.48;94276.56;5079857;28;20077;-83
2022/08/21 02:51:27;;;;;;;7.20;2.92;;;;;;;18.73;74.14;94281.16;5097017;28;20424;-83
2022/08/21 02:53:52;;;;;;;7.35;3.03;;;;;;;18.70;74.48;94278.91;5079726;28;20047;-83
2022/08/21 02:56:21;;;;;;;8.82;3.28;;;;;;;18.72;74.39;94282.16;5114861;28;20031;-82
2022/08/21 02:58:51;;;;;;;6.00;2.88;;;;;;;18.72;74.20;94282.16;5113398;28;20119;-82
2022/08/21 03:01:17;;;;;;;8.90;3.20;;;;;;;18.60;74.41;94267.06;5079725;28;20039;-83
2022/08/21 03:03:44;;;;;;;8.18;3.00;;;;;;;18.62;74.47;94284.31;5113383;28;20474;-83
2022/08/21 03:06:10;;;;;;;4.82;2.67;;;;;;;18.52;74.61;94275.91;5079502;28;20172;-83
2022/08/21 03:08:36;;;;;;;6.97;3.30;;;;;;;18.53;74.88;94280.19;5079780;28;20035;-83
2022/08/21 03:11:01;;;;;;;7.30;3.10;;;;;;;18.54;74.38;94272.09;5113492;28;20454;-82
2022/08/21 03:13:27;;;;;;;5.13;2.65;;;;;;;18.58;74.55;94280.41;5096447;28;20493;-81
2022/08/21 03:15:53;;;;;;;4.68;2.78;;;;;;;18.59;74.38;94275.97;5079218;28;20488;-83
2022/08/21 03:18:18;;;;;;;10.73;3.00;;;;;;;18.58;74.37;94269.06;5113177;28;20114;-83
2022/08/21 03:20:44;;;;;;;8.80;3.33;;;;;;;18.56;74.19;94253.50;5113245;28;20020;-83
2022/08/21 03:23:10;;;;;;;6.60;3.13;;;;;;;18.55;74.57;94262.38;5112987;28;20032;-83
2022/08/21 03:25:36;;;;;;;6.00;2.63;;;;;;;18.55;75.46;94259.75;5095951;28;20416;-82
2022/08/21 03:28:02;;;;;;;6.13;2.90;;;;;;;18.44;75.79;94257.63;5096066;28;20043;-83
2022/08/21 03:30:27;;;;;;;5.90;2.92;;;;;;;18.54;75.09;94279.16;5113520;28;20069;-82
2022/08/21 03:32:56;;;;;;;6.15;2.97;;;;;;;18.52;74.47;94266.19;5112742;28;20062;-83
2022/08/21 03:35:21;;;;;;;5.57;2.97;;;;;;;18.62;74.26;94276.41;5095704;28;20034;-83
2022/08/21 03:37:47;;;;;;;5.88;2.88;;;;;;;18.57;74.30;94270.91;5112934;28;20039;-83
2022/08/21 03:40:14;;;;;;;8.40;2.65;;;;;;;18.63;74.12;94279.84;5095949;28;20049;-81
2022/08/21 03:42:39;;;;;;;4.30;2.55;;;;;;;18.63;73.80;94285.09;5112823;28;20058;-83
2022/08/21 03:45:08;;;;;;;6.20;2.35;;;;;;;18.38;73.95;94284.69;5078522;28;20572;-83
2022/08/21 03:47:33;;;;;;;4.82;2.67;;;;;;;18.37;74.54;94283.06;5112761;28;20127;-83
2022/08/21 03:50:01;;;;;;;5.00;2.58;;;;;;;18.23;75.38;94279.47;5095582;28;20050;-83
2022/08/21 03:52:26;;;;;;;5.72;2.70;;;;;;;18.20;76.30;94275.41;5095946;28;20065;-83
2022/08/21 03:54:52;;;;;;;6.78;2.58;;;;;;;18.25;76.51;94270.41;5113436;28;20473;-83
2022/08/21 03:57:18;;;;;;;6.63;2.83;;;;;;;18.27;76.28;94278.91;5095667;28;20032;-83
2022/08/21 03:59:45;;;;;;;5.57;2.40;;;;;;;18.28;76.26;94288.44;5078597;28;20540;-83
2022/08/21 04:02:11;;;;;;;5.68;2.80;;;;;;;18.30;76.11;94289.06;5095699;28;20036;-83
2022/08/21 04:04:39;;;;;;;5.40;2.70;;;;;;;18.28;76.18;94285.81;5112038;28;20038;-83
2022/08/21 04:07:04;;;;;;;6.78;2.50;;;;;;;18.23;76.35;94287.38;5078387;28;20031;-83
2022/08/21 04:09:31;;;;;;;8.23;2.70;;;;;;;18.22;76.18;94286.56;5095288;28;20119;-83
2022/08/21 04:11:56;;;;;;;4.80;2.47;;;;;;;18.25;75.79;94285.38;5094425;28;20030;-83
2022/08/21 04:14:22;;;;;;;9.60;2.75;;;;;;;18.21;75.90;94282.28;5094833;28;20023;-83
2022/08/21 04:16:47;;;;;;;4.43;2.83;;;;;;;18.21;75.75;94284.09;5095161;28;20032;-82
2022/08/21 04:19:13;;;;;;;7.20;2.50;;;;;;;18.22;75.39;94280.47;5095245;28;20035;-83
2022/08/21 04:21:39;;;;;;;4.80;2.42;;;;;;;18.24;74.58;94279.28;5078146;28;20031;-83
2022/08/21 04:24:05;;;;;;;11.43;2.65;;;;;;;18.28;74.98;94283.19;5094735;28;20035;-83
2022/08/21 04:26:31;;;;;;;4.55;2.50;;;;;;;18.28;74.52;94285.00;5112057;28;20066;-83
2022/08/21 04:28:57;;;;;;;7.80;2.88;;;;;;;18.28;74.58;94282.38;5077478;28;20040;-83
2022/08/21 04:31:23;;;;;;;7.85;2.47;;;;;;;18.27;74.79;94284.16;5111818;28;20027;-83
2022/08/21 04:33:49;;;;;;;6.15;2.45;;;;;;;18.24;74.87;94271.41;5112645;28;20023;-82
2022/08/21 04:36:15;;;;;;;5.20;2.47;;;;;;;18.40;74.63;94277.41;5094836;28;20020;-82
2022/08/21 04:38:40;;;;;;;4.47;2.60;;;;;;;18.33;74.71;94277.38;5094596;28;20035;-83
2022/08/21 04:41:06;;;;;;;4.95;2.80;;;;;;;18.26;75.00;94276.47;5077857;28;20088;-83
2022/08/21 04:43:32;;;;;;;6.97;2.80;;;;;;;18.30;75.60;94280.34;5077514;28;20489;-83
2022/08/21 04:46:00;;;;;;;5.65;3.13;;;;;;;18.23;75.94;94285.56;5111535;28;20356;-82
2022/08/21 04:48:25;;;;;;;8.13;2.92;;;;;;;18.34;75.82;94288.69;5111702;28;20041;-83
2022/08/21 04:51:01;;;;;;;5.95;2.50;;;;;;;18.35;74.45;94279.78;5077483;28;20015;-82
2022/08/21 04:53:31;;;;;;;5.63;2.72;;;;;;;18.19;74.41;94259.81;5095000;28;20480;-83
2022/08/21 04:55:57;;;;;;;;;;;;;;;18.34;74.24;94278.19;5112019;28;20024;-83
2022/08/21 04:58:22;;;;;;;7.38;2.28;;;;;;;18.33;74.30;94273.91;5112446;28;19920;-83
2022/08/21 05:00:48;;;;;;;4.88;2.33;;;;;;;18.45;73.51;94283.75;5094166;28;20048;-83
2022/08/21 05:03:14;;;;;;;4.45;2.30;;;;;;;18.82;72.77;94286.31;5077221;28;20110;-83
2022/08/21 05:05:40;;;;;;;6.25;2.50;;;;;;;19.05;72.26;94284.25;5077624;28;20072;-82
2022/08/21 05:08:05;;;;;;;4.28;2.50;;;;;;;19.40;70.82;94281.66;5094328;28;20036;-83
2022/08/21 05:10:33;;;;;;;4.40;2.55;;;;;;;19.97;70.14;94264.69;5111192;28;20023;-83
2022/08/21 05:12:59;;;;;;;6.78;2.50;;;;;;;20.44;66.63;94252.44;5112263;28;20119;-83
2022/08/21 05:15:25;;;;;;;5.55;2.40;;;;;;;20.82;66.90;94257.16;5077419;28;20028;-83
2022/08/21 05:17:50;;;;;;;4.20;2.53;;;;;;;21.29;66.12;94267.69;5111139;28;20482;-83
2022/08/21 05:20:16;;;;;;;8.10;2.90;;;;;;;21.47;63.19;94264.41;5094139;28;20019;-83
2022/08/21 05:22:44;;;;;;;6.97;2.70;;;;;;;21.54;64.59;94270.50;5110625;28;20050;-83
2022/08/21 05:25:10;;;;;;;5.68;2.72;;;;;;;21.55;64.11;94274.75;5094374;28;20027;-83
2022/08/21 05:27:35;;;;;;;5.38;2.80;;;;;;;21.30;64.25;94256.91;5077128;28;20038;-83
2022/08/21 05:30:01;;;;;;;4.95;2.92;;;;;;;21.25;63.01;94277.84;5093719;28;20482;-83
2022/08/21 05:32:28;;;;;;;8.65;2.97;;;;;;;21.08;65.83;94250.25;5093624;28;20035;-83
2022/08/21 05:34:54;;;;;;;9.73;3.03;;;;;;;21.00;65.42;94258.38;5093949;28;20026;-83
2022/08/21 05:37:20;;;;;;;5.82;3.00;;;;;;;20.81;67.06;94265.28;5094148;28;20050;-82
2022/08/21 05:39:45;;;;;;;8.20;3.20;;;;;;;20.56;69.43;94257.97;5093758;28;20028;-83
2022/08/21 05:42:10;;;;;;;6.88;3.65;;;;;;;20.39;68.82;94265.41;5093412;28;20493;-83
2022/08/21 05:44:36;;;;;;;10.18;3.50;;;;;;;20.36;68.78;94263.19;5093653;28;20028;-83
2022/08/21 05:47:06;;;;;;;9.13;3.90;;;;;;;20.14;69.54;94261.72;5110704;28;20116;-83
2022/08/21 05:49:31;;;;;;;11.15;3.83;;;;;;;20.09;68.92;94252.59;5076668;28;20417;-83
2022/08/21 05:51:56;;;;;;;6.50;3.50;;;;;;;20.25;71.53;94261.13;5093378;28;20032;-83
2022/08/21 05:54:22;;;;;;;8.95;4.45;;;;;;;20.33;70.46;94258.31;5093552;28;20028;-83
2022/08/21 05:56:47;;;;;;;10.63;4.55;;;;;;;20.59;68.87;94251.47;5093561;28;20509;-83
2022/08/21 05:59:13;;;;;;;7.05;4.75;;;;;;;20.68;69.33;94242.34;5095199;28;20405;-83
2022/08/21 06:01:40;;;;;;;6.35;4.00;;;;;;;20.73;68.38;94239.91;5113724;28;20027;-82
2022/08/21 06:04:05;;;;;;;7.07;4.00;;;;;;;20.96;66.67;94257.97;5114064;28;20426;-83
2022/08/21 06:06:31;;;;;;;9.38;3.78;;;;;;;21.01;67.72;94260.81;5096894;28;20039;-83
2022/08/21 06:08:57;;;;;;;9.23;4.45;;;;;;;21.01;68.03;94254.72;5132005;28;20055;-83
2022/08/21 06:11:23;;;;;;;7.65;4.50;;;;;;;20.92;68.67;94241.75;5113612;28;20505;-83
2022/08/21 06:13:48;;;;;;;6.95;4.13;;;;;;;20.93;66.46;94259.19;5097000;28;20035;-83
2022/08/21 06:16:17;;;;;;;7.63;3.80;;;;;;;20.76;67.23;94247.44;5113929;28;20023;-83
2022/08/21 06:18:46;;;;;;;8.80;4.30;;;;;;;20.77;67.98;94245.59;5097141;28;20042;-83
2022/08/21 06:21:14;;;;;;;9.70;6.60;;;;;;;20.90;67.88;94245.59;5080394;28;20031;-83
2022/08/21 06:23:39;;;;;;;9.32;5.68;;;;;;;21.17;68.66;94252.47;5080002;28;20039;-83
2022/08/21 06:26:07;;;;;;;8.15;5.13;;;;;;;21.39;67.25;94247.75;5113771;28;20031;-83
2022/08/21 06:28:36;;;;;;;5.57;4.28;;;;;;;21.66;66.82;94252.97;5114090;28;20024;-83
2022/08/21 06:31:10;;;;;;;8.23;4.60;;;;;;;21.85;65.54;94244.16;5097816;28;20035;-83
2022/08/21 06:33:35;;;;;;;9.52;5.20;;;;;;;22.05;65.36;94241.41;5096703;28;20511;-83
2022/08/21 06:36:01;;;;;;;7.82;5.03;;;;;;;22.14;62.80;94255.19;5099490;27;20039;-83
2022/08/21 06:38:26;;;;;;;6.30;4.40;;;;;;;22.24;63.53;94249.50;5100379;27;20027;-82
2022/08/21 06:40:52;;;;;;;9.55;4.82;;;;;;;22.24;63.28;94234.44;5117767;27;20031;-83
2022/08/21 06:43:17;;;;;;;9.40;4.82;;;;;;;22.44;61.64;94254.66;5100427;27;20023;-83
2022/08/21 06:45:43;;;;;;;10.27;5.00;;;;;;;22.25;60.54;94240.53;5100730;27;20046;-83
2022/08/21 06:48:08;;;;;;;8.73;4.72;;;;;;;22.46;62.33;94258.72;5117367;27;20033;-83
2022/08/21 06:50:34;;;;;;;8.77;4.30;;;;;;;22.57;62.49;94265.16;5083663;27;20032;-82
2022/08/21 06:53:04;;;;;;;6.53;4.20;;;;;;;22.64;62.46;94257.97;5083126;27;20074;-83
2022/08/21 06:55:30;;;;;;;7.57;4.07;;;;;;;22.81;62.61;94260.91;5135680;27;20285;-83
2022/08/21 06:57:56;;;;;;;7.05;4.15;;;;;;;22.84;62.12;94243.78;5117217;27;20035;-83
2022/08/21 07:00:21;;;;;;;8.40;5.10;;;;;;;23.00;61.31;94264.44;5117036;27;20052;-83
2022/08/21 07:02:47;;;;;;;10.82;4.70;;;;;;;22.98;60.60;94269.13;5099729;27;20027;-84
2022/08/21 07:05:12;;;;;;;7.43;4.70;;;;;;;23.12;61.26;94272.47;5116994;27;20054;-82
2022/08/21 07:07:38;;;;;;;6.95;4.57;;;;;;;23.15;59.69;94264.09;5117204;27;20024;-83
2022/08/21 07:10:03;;;;;;;7.68;4.30;;;;;;;23.11;60.80;94265.56;5100026;27;20031;-83
2022/08/21 07:12:30;;;;;;;8.48;4.65;;;;;;;23.07;62.55;94270.50;5099684;27;20504;-84
2022/08/21 07:14:55;;;;;;;9.70;4.93;;;;;;;22.99;59.95;94267.31;5100126;27;20289;-83
2022/08/21 07:17:21;;;;;;;8.95;4.53;;;;;;;22.95;59.42;94251.00;5116714;27;20031;-83
2022/08/21 07:19:46;;;;;;;7.78;4.18;;;;;;;22.88;58.46;94251.06;5116644;27;20525;-82
2022/08/21 07:22:12;;;;;;;6.57;3.10;;;;;;;22.95;58.43;94257.13;5099507;27;20027;-83
2022/08/21 07:24:37;;;;;;;7.03;3.70;;;;;;;22.89;59.33;94259.81;5099570;27;20031;-83
2022/08/21 07:27:03;;;;;;;9.38;3.30;;;;;;;22.83;61.08;94250.91;5116669;27;20080;-83
2022/08/21 07:29:28;;;;;;;7.93;3.47;;;;;;;22.61;59.20;94247.00;5099429;27;20525;-84
2022/08/21 07:31:54;;;;;;;7.90;2.92;;;;;;;22.61;60.06;94245.16;5082248;27;20027;-83
2022/08/21 07:34:19;;;;;;;8.55;3.05;;;;;;;22.65;57.61;94243.72;5116393;27;20035;-83
2022/08/21 07:36:45;;;;;;;6.40;2.70;;;;;;;22.60;56.05;94243.56;5134747;27;20042;-83
2022/08/21 07:39:13;;;;;;;6.82;2.65;;;;;;;22.63;57.30;94221.94;5116416;27;20031;-83
2022/08/21 07:41:39;;;;;;;7.75;3.50;;;;;;;22.91;58.07;94236.59;5098914;27;20031;-83
2022/08/21 07:44:04;;;;;;;6.10;2.88;;;;;;;23.12;58.77;94236.25;5082426;27;20087;-84
2022/08/21 07:46:30;;;;;;;6.10;3.30;;;;;;;23.30;57.78;94237.28;5081257;27;20039;-83
2022/08/21 07:48:55;;;;;;;6.40;3.30;;;;;;;23.48;57.57;94226.69;5116405;27;20118;-84
2022/08/21 07:51:23;;;;;;;6.50;2.67;;;;;;;23.78;56.23;94231.28;5099087;27;20509;-83
2022/08/21 07:53:50;;;;;;;4.72;2.60;;;;;;;23.99;54.52;94230.00;5116613;27;20069;-83
2022/08/21 07:56:15;;;;;;;7.45;3.63;;;;;;;24.20;57.96;94229.50;5099326;27;20030;-83
2022/08/21 07:58:41;;;;;;;7.47;3.80;;;;;;;24.34;56.11;94232.78;5115830;27;20023;-83
2022/08/21 08:01:06;;;;;;;6.78;4.78;;;;;;;24.41;56.57;94222.88;5098965;27;20107;-83
2022/08/21 08:03:32;;;;;;;9.20;4.15;;;;;;;24.61;55.46;94227.13;5099376;27;20038;-83
2022/08/21 08:05:58;;;;;;;7.47;3.50;;;;;;;24.73;55.27;94227.94;5115968;27;20037;-82
2022/08/21 08:08:23;;;;;;;8.55;3.50;;;;;;;24.81;55.09;94230.25;5115990;27;20504;-83
2022/08/21 08:10:49;;;;;;;7.43;3.22;;;;;;;24.84;53.03;94232.44;5098815;27;20031;-83
2022/08/21 08:13:19;;;;;;;7.65;3.22;;;;;;;24.83;51.48;94217.56;5098773;27;20315;-83
2022/08/21 08:15:45;;;;;;;7.65;3.50;;;;;;;24.87;51.75;94237.31;5116405;27;20042;-83
2022/08/21 08:18:10;;;;;;;9.13;4.57;;;;;;;24.79;50.41;94227.00;5115547;27;20031;-83
2022/08/21 08:20:38;;;;;;;11.23;4.15;;;;;;;24.65;50.91;94230.91;5115203;27;20031;-83
2022/08/21 08:23:03;;;;;;;10.10;3.97;;;;;;;24.60;52.15;94231.63;5098448;27;20041;-83
2022/08/21 08:25:29;;;;;;;9.48;3.88;;;;;;;24.36;50.62;94235.22;5098456;27;20027;-83
2022/08/21 08:27:54;;;;;;;9.52;4.22;;;;;;;23.97;54.06;94234.72;5098249;27;20038;-83
2022/08/21 08:30:21;;;;;;;8.07;3.80;;;;;;;24.08;54.03;94245.38;5097931;27;20043;-83
2022/08/21 08:32:47;;;;;;;7.25;4.10;;;;;;;24.08;53.81;94237.41;5114997;27;20024;-83
2022/08/21 08:35:12;;;;;;;7.43;4.35;;;;;;;23.99;54.32;94236.13;5081306;27;20054;-81
2022/08/21 08:37:39;;;;;;;9.25;3.80;;;;;;;23.95;53.46;94250.03;5098343;27;20039;-82
2022/08/21 08:40:07;;;;;;;8.63;3.92;;;;;;;24.00;53.68;94252.81;5081200;27;20492;-83
2022/08/21 08:42:35;;;;;;;10.30;4.00;;;;;;;23.98;53.67;94234.47;5115234;27;20154;-83
2022/08/21 08:45:05;;;;;;;7.22;4.00;;;;;;;23.92;54.26;94247.81;5098432;27;20031;-83
2022/08/21 08:47:31;;;;;;;6.90;4.50;;;;;;;23.82;53.62;94237.72;5115658;27;20063;-82
2022/08/21 08:50:15;;;;;;;8.68;4.20;;;;;;;23.40;54.12;94240.22;5080564;27;20091;-83
2022/08/21 08:53:02;;;;;;;7.50;3.65;;;;;;;23.16;56.61;94210.91;5098988;27;20046;-83
2022/08/21 08:55:37;;;;;;;8.18;4.85;;;;;;;23.28;57.24;94223.44;5114322;27;20512;-83
2022/08/21 08:58:02;;;;;;;7.78;4.40;;;;;;;23.36;57.35;94209.91;5098260;27;20043;-83
2022/08/21 09:00:28;;;;;;;7.95;4.10;;;;;;;23.54;56.83;94220.50;5097921;27;20490;-83
2022/08/21 09:02:55;;;;;;;9.63;4.45;;;;;;;23.60;55.34;94216.97;5097749;27;20077;-83
2022/08/21 09:05:26;;;;;;;7.00;4.20;;;;;;;23.74;54.76;94227.47;5097839;27;20031;-83
2022/08/21 09:08:22;;;;;;;7.50;4.40;;;;;;;23.84;56.26;94225.88;5098247;27;20062;-83
2022/08/21 09:11:04;;;;;;;8.10;3.97;;;;;;;23.84;56.52;94215.25;5117302;27;20019;-83
2022/08/21 09:13:47;;;;;;;7.18;4.05;;;;;;;23.93;56.53;94214.97;5114374;27;20042;-83
2022/08/21 09:16:38;;;;;;;7.63;4.45;;;;;;;23.98;55.38;94215.09;5114352;27;20500;-83
2022/08/21 09:19:09;;;;;;;;;;;;;;;24.05;55.71;94213.19;5114617;27;20062;-83
2022/08/21 09:21:55;;;;;;;6.60;4.30;;;;;;;24.10;56.06;94213.31;5114308;27;19912;-83
2022/08/21 09:24:33;;;;;;;6.88;4.28;;;;;;;24.16;55.38;94209.75;5132707;27;20079;-83
2022/08/21 09:27:12;;;;;;;7.82;4.30;;;;;;;24.09;55.25;94203.72;5132845;27;20054;-83
2022/08/21 09:29:40;;;;;;;8.05;3.97;;;;;;;24.24;54.55;94211.28;5098008;27;20063;-83
2022/08/21 09:32:14;;;;;;;8.70;4.50;;;;;;;24.26;53.16;94203.91;5097655;27;20038;-83
2022/08/21 09:34:40;;;;;;;8.77;4.30;;;;;;;24.26;54.93;94206.56;5132409;27;20023;-83
2022/08/21 09:37:05;;;;;;;9.63;4.00;;;;;;;24.33;53.83;94204.63;5097691;27;20038;-84
2022/08/21 09:39:32;;;;;;;9.43;4.53;;;;;;;24.39;53.85;94210.88;5097217;27;20042;-83
2022/08/21 09:42:04;;;;;;;8.45;4.00;;;;;;;24.46;53.54;94203.63;5097413;27;20092;-83
2022/08/21 09:44:31;;;;;;;9.05;4.00;;;;;;;24.41;53.52;94209.59;5098491;27;20165;-83
2022/08/21 09:46:57;;;;;;;8.43;3.75;;;;;;;24.37;53.50;94205.78;5097214;28;20034;-83
2022/08/21 09:49:30;;;;;;;6.85;3.65;;;;;;;24.29;53.64;94206.09;5096982;28;20066;-84
2022/08/21 09:51:58;;;;;;;7.65;4.03;;;;;;;24.21;53.37;94206.41;5114075;28;20054;-84
2022/08/21 09:54:32;;;;;;;6.93;3.97;;;;;;;24.14;53.18;94211.81;5114470;28;20030;-83
2022/08/21 09:59:43;;;;;;;8.05;3.50;;;;;;;23.97;54.33;94189.63;5116625;28;20058;-83
2022/08/21 10:02:35;;;;;;;8.43;3.70;;;;;;;23.89;56.01;94193.38;5097348;28;20035;-84
2022/08/21 10:05:25;;;;;;;8.73;3.53;;;;;;;23.83;58.44;94194.28;5127168;28;20128;-84
2022/08/21 10:07:50;;;;;;;9.23;3.70;;;;;;;23.81;57.20;94191.03;5101182;28;20055;-84
2022/08/21 10:10:29;;;;;;;7.10;3.30;;;;;;;23.70;60.98;94184.63;5098750;27;20481;-83
2022/08/21 10:13:02;;;;;;;7.13;3.90;;;;;;;23.62;55.75;94192.88;5100901;27;20592;-84
2022/08/21 10:15:47;;;;;;;8.07;4.40;;;;;;;23.62;56.35;94192.88;5118452;27;20515;-83
2022/08/21 10:18:26;;;;;;;9.18;3.88;;;;;;;23.60;55.58;94190.47;5101079;27;20042;-83
2022/08/21 10:21:04;;;;;;;8.40;3.95;;;;;;;23.46;54.86;94175.75;5085105;27;20485;-83
2022/08/21 10:23:54;;;;;;;7.90;4.15;;;;;;;23.56;56.97;94183.16;5084926;27;20063;-85
2022/08/21 10:26:40;;;;;;;8.88;3.60;;;;;;;23.54;57.52;94187.88;5101288;27;20027;-82
2022/08/21 10:29:22;;;;;;;8.05;3.67;;;;;;;23.55;57.72;94186.88;5117527;27;20042;-83
2022/08/21 10:32:00;;;;;;;7.28;3.63;;;;;;;23.53;58.37;94188.91;5117778;27;20061;-83
2022/08/21 10:34:45;;;;;;;6.55;3.58;;;;;;;23.54;56.22;94180.75;5136105;27;20027;-83
2022/08/21 10:37:17;;;;;;;9.45;4.10;;;;;;;23.61;55.38;94173.50;5118758;27;20057;-83
2022/08/21 10:40:03;;;;;;;6.70;3.70;;;;;;;23.70;54.84;94174.00;5135743;27;20019;-82
2022/08/21 10:42:45;;;;;;;5.53;3.42;;;;;;;23.77;54.05;94171.31;5136054;27;20031;-83
2022/08/21 10:45:30;;;;;;;6.55;3.60;;;;;;;23.88;53.20;94175.88;5102217;27;20035;-82
2022/08/21 10:47:57;;;;;;;8.27;3.78;;;;;;;23.86;53.40;94168.13;5135918;27;20426;-83
2022/08/21 10:50:35;;;;;;;9.02;3.75;;;;;;;23.90;53.39;94152.56;5117472;27;20035;-82
2022/08/21 10:53:12;;;;;;;6.97;3.72;;;;;;;23.99;53.47;94153.88;5118790;27;20085;-83
2022/08/21 10:55:44;;;;;;;6.78;4.38;;;;;;;24.15;55.13;94143.66;5117230;27;20408;-82
2022/08/21 10:58:29;;;;;;;10.95;4.53;;;;;;;24.31;54.93;94121.78;5100035;27;20027;-82
2022/08/21 11:01:05;;;;;;;5.43;3.72;;;;;;;24.53;53.70;94128.16;5116862;27;20175;-83
2022/08/21 11:03:45;;;;;;;8.13;3.92;;;;;;;24.71;52.42;94126.44;5100817;27;20126;-82
2022/08/21 11:06:21;;;;;;;8.27;3.60;;;;;;;24.75;52.66;94112.47;5082920;27;20035;-82
2022/08/21 11:08:51;;;;;;;8.32;3.67;;;;;;;25.00;51.65;94124.72;5100884;27;20046;-81
2022/08/21 11:11:26;;;;;;;6.60;3.60;;;;;;;25.11;50.58;94126.53;5117107;27;20460;-82
2022/08/21 11:14:21;;;;;;;4.57;3.67;;;;;;;25.23;51.23;94123.88;5116803;27;20035;-82
2022/08/21 11:16:56;;;;;;;5.93;3.45;;;;;;;25.22;49.02;94111.66;5091358;27;20523;-83
2022/08/21 11:19:35;;;;;;;5.90;3.70;;;;;;;25.16;51.49;94083.38;5100463;27;20023;-83
2022/08/21 11:22:21;;;;;;;7.22;3.70;;;;;;;25.30;49.28;94116.59;5101222;27;20133;-83
2022/08/21 11:25:17;;;;;;;5.25;3.47;;;;;;;25.19;50.68;94110.28;5099530;27;20070;-83
2022/08/21 11:28:19;;;;;;;8.07;3.63;;;;;;;24.98;50.84;94098.38;5116594;27;20046;-82
2022/08/21 11:30:51;;;;;;;6.75;4.10;;;;;;;25.11;50.80;94112.47;5087351;27;20523;-82
2022/08/21 11:33:38;;;;;;;6.13;3.58;;;;;;;25.18;51.02;94115.81;5099545;27;20047;-83
2022/08/21 11:36:25;;;;;;;7.22;3.58;;;;;;;25.22;48.69;94114.31;5118582;27;20027;-83
2022/08/21 11:38:57;;;;;;;5.70;3.28;;;;;;;25.11;48.55;94105.28;5116316;27;20048;-83
2022/08/21 11:41:32;;;;;;;5.22;3.40;;;;;;;25.16;50.33;94104.63;5101127;27;20484;-83
2022/08/21 11:44:03;;;;;;;6.10;3.38;;;;;;;25.25;49.87;94111.19;5099254;27;20026;-83